sensor_id;sensor_type;location;lat;lon;timestamp;temperature;humidity
77727;SHT30;68312;53.502;10.030;2023-04-08T00:00:15;5.68;87.47
77727;SHT30;68312;53.502;10.030;2023-04-08T00:02:41;5.64;87.39
77727;SHT30;68312;53.502;10.030;2023-04-08T00:05:07;5.62;87.68
77727;SHT30;68312;53.502;10.030;2023-04-08T00:07:33;5.68;87.64
77727;SHT30;68312;53.502;10.030;2023-04-08T00:09:59;5.68;87.45
77727;SHT30;68312;53.502;10.030;2023-04-08T00:12:24;5.72;87.60
77727;SHT30;68312;53.502;10.030;2023-04-08T00:14:50;5.71;87.59
77727;SHT30;68312;53.502;10.030;2023-04-08T00:17:16;5.72;87.67
77727;SHT30;68312;53.502;10.030;2023-04-08T00:19:42;5.75;87.50
77727;SHT30;68312;53.502;10.030;2023-04-08T00:22:07;5.78;87.51
77727;SHT30;68312;53.502;10.030;2023-04-08T00:24:33;5.77;87.75
77727;SHT30;68312;53.502;10.030;2023-04-08T00:26:58;5.74;87.82
77727;SHT30;68312;53.502;10.030;2023-04-08T00:29:25;5.75;87.95
77727;SHT30;68312;53.502;10.030;2023-04-08T00:31:50;5.78;87.93
77727;SHT30;68312;53.502;10.030;2023-04-08T00:34:16;5.77;87.95
77727;SHT30;68312;53.502;10.030;2023-04-08T00:36:42;5.77;88.05
77727;SHT30;68312;53.502;10.030;2023-04-08T00:39:08;5.77;88.05
77727;SHT30;68312;53.502;10.030;2023-04-08T00:41:34;5.77;88.09
77727;SHT30;68312;53.502;10.030;2023-04-08T00:44:00;5.81;87.74
77727;SHT30;68312;53.502;10.030;2023-04-08T00:46:27;5.81;87.61
77727;SHT30;68312;53.502;10.030;2023-04-08T00:48:53;5.79;87.84
77727;SHT30;68312;53.502;10.030;2023-04-08T00:51:20;5.79;87.86
77727;SHT30;68312;53.502;10.030;2023-04-08T00:53:45;5.81;87.66
77727;SHT30;68312;53.502;10.030;2023-04-08T00:56:11;5.77;88.01
77727;SHT30;68312;53.502;10.030;2023-04-08T00:58:37;5.79;87.76
77727;SHT30;68312;53.502;10.030;2023-04-08T01:01:17;5.81;87.93
77727;SHT30;68312;53.502;10.030;2023-04-08T01:04:13;5.79;87.70
77727;SHT30;68312;53.502;10.030;2023-04-08T01:07:16;5.85;87.22
77727;SHT30;68312;53.502;10.030;2023-04-08T01:09:52;5.84;87.40
77727;SHT30;68312;53.502;10.030;2023-04-08T01:12:25;5.91;86.86
77727;SHT30;68312;53.502;10.030;2023-04-08T01:15:04;5.94;86.87
77727;SHT30;68312;53.502;10.030;2023-04-08T01:17:33;5.95;86.49
77727;SHT30;68312;53.502;10.030;2023-04-08T01:20:03;5.94;86.79
77727;SHT30;68312;53.502;10.030;2023-04-08T01:25:50;5.92;87.02
77727;SHT30;68312;53.502;10.030;2023-04-08T01:28:22;5.92;87.09
77727;SHT30;68312;53.502;10.030;2023-04-08T01:30:50;5.92;87.32
77727;SHT30;68312;53.502;10.030;2023-04-08T01:33:18;5.94;87.32
77727;SHT30;68312;53.502;10.030;2023-04-08T01:35:46;5.95;87.31
77727;SHT30;68312;53.502;10.030;2023-04-08T01:38:18;6.01;87.35
77727;SHT30;68312;53.502;10.030;2023-04-08T01:40:46;6.02;87.25
77727;SHT30;68312;53.502;10.030;2023-04-08T01:43:16;6.02;87.24
77727;SHT30;68312;53.502;10.030;2023-04-08T01:45:44;6.02;86.95
77727;SHT30;68312;53.502;10.030;2023-04-08T01:48:13;6.06;86.80
77727;SHT30;68312;53.502;10.030;2023-04-08T01:50:44;6.05;86.78
77727;SHT30;68312;53.502;10.030;2023-04-08T01:53:10;6.01;86.78
77727;SHT30;68312;53.502;10.030;2023-04-08T01:55:41;6.06;86.92
77727;SHT30;68312;53.502;10.030;2023-04-08T01:58:16;6.06;86.58
77727;SHT30;68312;53.502;10.030;2023-04-08T02:00:46;6.01;86.93
77727;SHT30;68312;53.502;10.030;2023-04-08T02:03:16;6.02;87.05
77727;SHT30;68312;53.502;10.030;2023-04-08T02:05:45;6.07;87.04
77727;SHT30;68312;53.502;10.030;2023-04-08T02:08:12;6.03;86.86
77727;SHT30;68312;53.502;10.030;2023-04-08T02:10:38;6.01;87.05
77727;SHT30;68312;53.502;10.030;2023-04-08T02:13:04;6.01;87.04
77727;SHT30;68312;53.502;10.030;2023-04-08T02:15:33;5.98;86.93
77727;SHT30;68312;53.502;10.030;2023-04-08T02:18:15;5.95;86.94
77727;SHT30;68312;53.502;10.030;2023-04-08T02:21:00;5.91;86.84
77727;SHT30;68312;53.502;10.030;2023-04-08T02:23:35;5.89;87.16
77727;SHT30;68312;53.502;10.030;2023-04-08T02:26:09;5.91;87.01
77727;SHT30;68312;53.502;10.030;2023-04-08T02:28:39;5.85;87.11
77727;SHT30;68312;53.502;10.030;2023-04-08T02:31:10;5.82;87.41
77727;SHT30;68312;53.502;10.030;2023-04-08T02:33:38;5.84;87.47
77727;SHT30;68312;53.502;10.030;2023-04-08T02:36:06;5.82;87.55
77727;SHT30;68312;53.502;10.030;2023-04-08T02:38:32;5.86;87.51
77727;SHT30;68312;53.502;10.030;2023-04-08T02:40:58;5.94;86.79
77727;SHT30;68312;53.502;10.030;2023-04-08T02:43:24;5.94;87.00
77727;SHT30;68312;53.502;10.030;2023-04-08T02:45:58;5.91;86.85
77727;SHT30;68312;53.502;10.030;2023-04-08T02:48:27;5.89;86.92
77727;SHT30;68312;53.502;10.030;2023-04-08T02:50:52;5.84;86.86
77727;SHT30;68312;53.502;10.030;2023-04-08T02:53:18;5.84;87.01
77727;SHT30;68312;53.502;10.030;2023-04-08T02:55:44;5.82;87.18
77727;SHT30;68312;53.502;10.030;2023-04-08T02:58:09;5.82;87.41
77727;SHT30;68312;53.502;10.030;2023-04-08T03:00:34;5.82;87.35
77727;SHT30;68312;53.502;10.030;2023-04-08T03:03:01;5.84;87.45
77727;SHT30;68312;53.502;10.030;2023-04-08T03:05:26;5.85;87.13
77727;SHT30;68312;53.502;10.030;2023-04-08T03:07:52;5.82;87.41
77727;SHT30;68312;53.502;10.030;2023-04-08T03:10:17;5.86;86.81
77727;SHT30;68312;53.502;10.030;2023-04-08T03:12:43;5.84;86.93
77727;SHT30;68312;53.502;10.030;2023-04-08T03:15:09;5.81;86.69
77727;SHT30;68312;53.502;10.030;2023-04-08T03:17:34;5.85;86.55
77727;SHT30;68312;53.502;10.030;2023-04-08T03:20:01;5.81;86.68
77727;SHT30;68312;53.502;10.030;2023-04-08T03:22:29;5.78;86.92
77727;SHT30;68312;53.502;10.030;2023-04-08T03:24:54;5.79;86.94
77727;SHT30;68312;53.502;10.030;2023-04-08T03:27:20;5.85;86.60
77727;SHT30;68312;53.502;10.030;2023-04-08T03:29:45;5.85;86.36
77727;SHT30;68312;53.502;10.030;2023-04-08T03:32:12;5.85;86.60
77727;SHT30;68312;53.502;10.030;2023-04-08T03:34:37;5.82;86.22
77727;SHT30;68312;53.502;10.030;2023-04-08T03:37:03;5.82;86.10
77727;SHT30;68312;53.502;10.030;2023-04-08T03:39:28;5.74;86.63
77727;SHT30;68312;53.502;10.030;2023-04-08T03:41:55;5.71;86.79
77727;SHT30;68312;53.502;10.030;2023-04-08T03:44:20;5.72;86.84
77727;SHT30;68312;53.502;10.030;2023-04-08T03:46:46;5.72;86.82
77727;SHT30;68312;53.502;10.030;2023-04-08T03:49:11;5.74;86.67
77727;SHT30;68312;53.502;10.030;2023-04-08T03:51:37;5.65;87.07
77727;SHT30;68312;53.502;10.030;2023-04-08T03:54:02;5.58;87.60
77727;SHT30;68312;53.502;10.030;2023-04-08T03:56:28;5.57;87.71
77727;SHT30;68312;53.502;10.030;2023-04-08T03:58:53;5.58;88.03
77727;SHT30;68312;53.502;10.030;2023-04-08T04:01:19;5.61;88.15
77727;SHT30;68312;53.502;10.030;2023-04-08T04:03:44;5.54;88.45
77727;SHT30;68312;53.502;10.030;2023-04-08T04:06:10;5.55;88.62
77727;SHT30;68312;53.502;10.030;2023-04-08T04:08:35;5.54;88.85
77727;SHT30;68312;53.502;10.030;2023-04-08T04:11:01;5.51;88.95
77727;SHT30;68312;53.502;10.030;2023-04-08T04:13:26;5.44;89.07
77727;SHT30;68312;53.502;10.030;2023-04-08T04:15:52;5.50;88.94
77727;SHT30;68312;53.502;10.030;2023-04-08T04:18:17;5.40;89.21
77727;SHT30;68312;53.502;10.030;2023-04-08T04:20:43;5.38;89.57
77727;SHT30;68312;53.502;10.030;2023-04-08T04:23:09;5.37;89.69
77727;SHT30;68312;53.502;10.030;2023-04-08T04:25:35;5.37;89.66
77727;SHT30;68312;53.502;10.030;2023-04-08T04:28:00;5.34;89.91
77727;SHT30;68312;53.502;10.030;2023-04-08T04:30:27;5.37;89.96
77727;SHT30;68312;53.502;10.030;2023-04-08T04:32:53;5.34;90.10
77727;SHT30;68312;53.502;10.030;2023-04-08T04:35:18;5.37;90.12
77727;SHT30;68312;53.502;10.030;2023-04-08T04:37:44;5.31;90.12
77727;SHT30;68312;53.502;10.030;2023-04-08T04:40:10;5.34;90.09
77727;SHT30;68312;53.502;10.030;2023-04-08T04:42:35;5.34;90.15
77727;SHT30;68312;53.502;10.030;2023-04-08T04:45:01;5.34;90.16
77727;SHT30;68312;53.502;10.030;2023-04-08T04:47:27;5.40;90.02
77727;SHT30;68312;53.502;10.030;2023-04-08T04:49:52;5.41;89.77
77727;SHT30;68312;53.502;10.030;2023-04-08T04:52:18;5.46;89.42
77727;SHT30;68312;53.502;10.030;2023-04-08T04:54:43;5.43;89.57
77727;SHT30;68312;53.502;10.030;2023-04-08T04:57:09;5.37;89.92
77727;SHT30;68312;53.502;10.030;2023-04-08T04:59:36;5.38;90.00
77727;SHT30;68312;53.502;10.030;2023-04-08T05:02:01;5.43;89.87
77727;SHT30;68312;53.502;10.030;2023-04-08T05:04:27;5.40;89.82
77727;SHT30;68312;53.502;10.030;2023-04-08T05:06:53;5.40;89.98
77727;SHT30;68312;53.502;10.030;2023-04-08T05:09:18;5.43;89.75
77727;SHT30;68312;53.502;10.030;2023-04-08T05:11:44;5.41;90.05
77727;SHT30;68312;53.502;10.030;2023-04-08T05:14:09;5.44;90.12
77727;SHT30;68312;53.502;10.030;2023-04-08T05:16:35;5.41;89.91
77727;SHT30;68312;53.502;10.030;2023-04-08T05:19:00;5.41;90.10
77727;SHT30;68312;53.502;10.030;2023-04-08T05:21:26;5.43;90.26
77727;SHT30;68312;53.502;10.030;2023-04-08T05:23:52;5.40;90.42
77727;SHT30;68312;53.502;10.030;2023-04-08T05:26:21;5.37;90.63
77727;SHT30;68312;53.502;10.030;2023-04-08T05:28:49;5.43;90.53
77727;SHT30;68312;53.502;10.030;2023-04-08T05:31:19;5.38;90.36
77727;SHT30;68312;53.502;10.030;2023-04-08T05:33:45;5.40;90.60
77727;SHT30;68312;53.502;10.030;2023-04-08T05:36:12;5.40;90.49
77727;SHT30;68312;53.502;10.030;2023-04-08T05:38:39;5.40;90.41
77727;SHT30;68312;53.502;10.030;2023-04-08T05:41:06;5.44;90.09
77727;SHT30;68312;53.502;10.030;2023-04-08T05:43:33;5.44;90.29
77727;SHT30;68312;53.502;10.030;2023-04-08T05:45:58;5.46;90.35
77727;SHT30;68312;53.502;10.030;2023-04-08T05:48:24;5.41;90.51
77727;SHT30;68312;53.502;10.030;2023-04-08T05:50:50;5.46;90.51
77727;SHT30;68312;53.502;10.030;2023-04-08T05:53:15;5.46;90.42
77727;SHT30;68312;53.502;10.030;2023-04-08T05:55:41;5.41;90.66
77727;SHT30;68312;53.502;10.030;2023-04-08T05:58:06;5.41;90.61
77727;SHT30;68312;53.502;10.030;2023-04-08T06:00:32;5.38;90.73
77727;SHT30;68312;53.502;10.030;2023-04-08T06:02:58;5.44;90.76
77727;SHT30;68312;53.502;10.030;2023-04-08T06:05:24;5.47;90.87
77727;SHT30;68312;53.502;10.030;2023-04-08T06:07:50;5.50;90.51
77727;SHT30;68312;53.502;10.030;2023-04-08T06:10:16;5.64;90.19
77727;SHT30;68312;53.502;10.030;2023-04-08T06:12:42;5.64;89.52
77727;SHT30;68312;53.502;10.030;2023-04-08T06:15:08;5.61;89.94
77727;SHT30;68312;53.502;10.030;2023-04-08T06:17:38;5.75;89.74
77727;SHT30;68312;53.502;10.030;2023-04-08T06:20:07;5.75;89.39
77727;SHT30;68312;53.502;10.030;2023-04-08T06:22:36;5.78;89.42
77727;SHT30;68312;53.502;10.030;2023-04-08T06:25:02;5.79;89.39
77727;SHT30;68312;53.502;10.030;2023-04-08T06:27:28;5.85;89.18
77727;SHT30;68312;53.502;10.030;2023-04-08T06:29:54;5.84;89.09
77727;SHT30;68312;53.502;10.030;2023-04-08T06:32:21;5.82;89.25
77727;SHT30;68312;53.502;10.030;2023-04-08T06:34:47;5.78;89.54
77727;SHT30;68312;53.502;10.030;2023-04-08T06:37:13;5.85;89.20
77727;SHT30;68312;53.502;10.030;2023-04-08T06:39:39;5.86;89.21
77727;SHT30;68312;53.502;10.030;2023-04-08T06:42:04;5.92;88.84
77727;SHT30;68312;53.502;10.030;2023-04-08T06:44:30;5.88;88.95
77727;SHT30;68312;53.502;10.030;2023-04-08T06:46:56;5.86;88.99
77727;SHT30;68312;53.502;10.030;2023-04-08T06:49:22;5.82;89.01
77727;SHT30;68312;53.502;10.030;2023-04-08T06:51:47;5.81;89.08
77727;SHT30;68312;53.502;10.030;2023-04-08T06:54:13;5.85;89.32
77727;SHT30;68312;53.502;10.030;2023-04-08T06:56:39;5.92;89.30
77727;SHT30;68312;53.502;10.030;2023-04-08T06:59:04;5.95;88.74
77727;SHT30;68312;53.502;10.030;2023-04-08T07:01:30;6.01;88.48
77727;SHT30;68312;53.502;10.030;2023-04-08T07:03:58;6.05;88.10
77727;SHT30;68312;53.502;10.030;2023-04-08T07:06:26;6.10;87.47
77727;SHT30;68312;53.502;10.030;2023-04-08T07:08:52;6.12;87.46
77727;SHT30;68312;53.502;10.030;2023-04-08T07:11:18;6.13;87.57
77727;SHT30;68312;53.502;10.030;2023-04-08T07:13:43;6.26;87.30
77727;SHT30;68312;53.502;10.030;2023-04-08T07:16:09;6.32;86.90
77727;SHT30;68312;53.502;10.030;2023-04-08T07:18:34;6.27;87.00
77727;SHT30;68312;53.502;10.030;2023-04-08T07:21:00;6.32;87.24
77727;SHT30;68312;53.502;10.030;2023-04-08T07:23:26;6.34;86.89
77727;SHT30;68312;53.502;10.030;2023-04-08T07:25:52;6.29;87.11
77727;SHT30;68312;53.502;10.030;2023-04-08T07:28:19;6.26;87.40
77727;SHT30;68312;53.502;10.030;2023-04-08T07:30:45;6.19;87.54
77727;SHT30;68312;53.502;10.030;2023-04-08T07:33:11;6.16;87.67
77727;SHT30;68312;53.502;10.030;2023-04-08T07:35:36;6.17;88.04
77727;SHT30;68312;53.502;10.030;2023-04-08T07:38:03;6.22;87.90
77727;SHT30;68312;53.502;10.030;2023-04-08T07:40:29;6.37;87.17
77727;SHT30;68312;53.502;10.030;2023-04-08T07:42:55;6.34;86.83
77727;SHT30;68312;53.502;10.030;2023-04-08T07:45:21;6.37;86.83
77727;SHT30;68312;53.502;10.030;2023-04-08T07:47:46;6.48;86.56
77727;SHT30;68312;53.502;10.030;2023-04-08T07:50:12;6.41;86.32
77727;SHT30;68312;53.502;10.030;2023-04-08T07:52:38;6.34;86.71
77727;SHT30;68312;53.502;10.030;2023-04-08T07:55:04;6.29;86.68
77727;SHT30;68312;53.502;10.030;2023-04-08T07:57:31;6.26;86.23
77727;SHT30;68312;53.502;10.030;2023-04-08T07:59:56;6.20;86.65
77727;SHT30;68312;53.502;10.030;2023-04-08T08:02:22;6.23;86.72
77727;SHT30;68312;53.502;10.030;2023-04-08T08:04:48;6.29;85.96
77727;SHT30;68312;53.502;10.030;2023-04-08T08:07:13;6.32;86.05
77727;SHT30;68312;53.502;10.030;2023-04-08T08:09:39;6.36;85.97
77727;SHT30;68312;53.502;10.030;2023-04-08T08:12:04;6.36;86.18
77727;SHT30;68312;53.502;10.030;2023-04-08T08:14:30;6.48;86.01
77727;SHT30;68312;53.502;10.030;2023-04-08T08:16:55;6.60;85.63
77727;SHT30;68312;53.502;10.030;2023-04-08T08:19:21;6.64;84.99
77727;SHT30;68312;53.502;10.030;2023-04-08T08:21:47;6.74;84.66
77727;SHT30;68312;53.502;10.030;2023-04-08T08:24:14;6.68;84.51
77727;SHT30;68312;53.502;10.030;2023-04-08T08:26:41;6.63;85.09
77727;SHT30;68312;53.502;10.030;2023-04-08T08:29:09;6.60;85.26
77727;SHT30;68312;53.502;10.030;2023-04-08T08:31:34;6.65;84.60
77727;SHT30;68312;53.502;10.030;2023-04-08T08:34:00;6.71;84.90
77727;SHT30;68312;53.502;10.030;2023-04-08T08:36:26;6.83;84.04
77727;SHT30;68312;53.502;10.030;2023-04-08T08:38:55;6.78;84.37
77727;SHT30;68312;53.502;10.030;2023-04-08T08:41:20;6.78;84.04
77727;SHT30;68312;53.502;10.030;2023-04-08T08:43:47;6.75;84.80
77727;SHT30;68312;53.502;10.030;2023-04-08T08:46:15;6.87;84.68
77727;SHT30;68312;53.502;10.030;2023-04-08T08:48:43;7.01;83.96
77727;SHT30;68312;53.502;10.030;2023-04-08T08:51:11;6.96;83.44
77727;SHT30;68312;53.502;10.030;2023-04-08T08:53:38;7.01;83.54
77727;SHT30;68312;53.502;10.030;2023-04-08T08:56:04;7.08;82.55
77727;SHT30;68312;53.502;10.030;2023-04-08T08:58:33;7.14;82.59
77727;SHT30;68312;53.502;10.030;2023-04-08T09:00:59;7.15;82.51
77727;SHT30;68312;53.502;10.030;2023-04-08T09:03:28;7.09;82.36
77727;SHT30;68312;53.502;10.030;2023-04-08T09:06:00;7.11;83.18
77727;SHT30;68312;53.502;10.030;2023-04-08T09:08:35;7.19;83.00
77727;SHT30;68312;53.502;10.030;2023-04-08T09:11:17;7.16;82.87
77727;SHT30;68312;53.502;10.030;2023-04-08T09:13:46;7.15;83.36
77727;SHT30;68312;53.502;10.030;2023-04-08T09:16:18;7.12;83.27
77727;SHT30;68312;53.502;10.030;2023-04-08T09:18:47;7.14;83.64
77727;SHT30;68312;53.502;10.030;2023-04-08T09:21:16;7.08;83.34
77727;SHT30;68312;53.502;10.030;2023-04-08T09:23:51;7.08;83.75
77727;SHT30;68312;53.502;10.030;2023-04-08T09:26:23;7.14;83.38
77727;SHT30;68312;53.502;10.030;2023-04-08T09:29:04;7.23;83.62
77727;SHT30;68312;53.502;10.030;2023-04-08T09:31:34;7.33;83.26
77727;SHT30;68312;53.502;10.030;2023-04-08T09:34:14;7.37;82.93
77727;SHT30;68312;53.502;10.030;2023-04-08T09:36:42;7.29;83.01
77727;SHT30;68312;53.502;10.030;2023-04-08T09:39:12;7.16;83.30
77727;SHT30;68312;53.502;10.030;2023-04-08T09:41:38;7.26;83.18
77727;SHT30;68312;53.502;10.030;2023-04-08T09:44:11;7.43;83.26
77727;SHT30;68312;53.502;10.030;2023-04-08T09:49:29;7.27;83.81
77727;SHT30;68312;53.502;10.030;2023-04-08T09:55:02;7.26;83.39
77727;SHT30;68312;53.502;10.030;2023-04-08T09:57:51;7.40;83.36
77727;SHT30;68312;53.502;10.030;2023-04-08T10:00:29;7.40;83.00
77727;SHT30;68312;53.502;10.030;2023-04-08T10:03:17;7.39;82.91
77727;SHT30;68312;53.502;10.030;2023-04-08T10:05:53;7.35;82.95
77727;SHT30;68312;53.502;10.030;2023-04-08T10:08:23;7.53;83.06
77727;SHT30;68312;53.502;10.030;2023-04-08T10:10:51;7.54;82.62
77727;SHT30;68312;53.502;10.030;2023-04-08T10:13:19;7.59;82.36
77727;SHT30;68312;53.502;10.030;2023-04-08T10:15:45;7.52;82.60
77727;SHT30;68312;53.502;10.030;2023-04-08T10:20:45;7.49;82.64
77727;SHT30;68312;53.502;10.030;2023-04-08T10:23:16;7.45;82.68
77727;SHT30;68312;53.502;10.030;2023-04-08T10:25:47;7.47;82.94
77727;SHT30;68312;53.502;10.030;2023-04-08T10:30:48;7.57;82.28
77727;SHT30;68312;53.502;10.030;2023-04-08T10:33:32;7.57;82.63
77727;SHT30;68312;53.502;10.030;2023-04-08T10:36:10;7.63;82.20
77727;SHT30;68312;53.502;10.030;2023-04-08T10:38:38;7.60;82.40
77727;SHT30;68312;53.502;10.030;2023-04-08T10:41:06;7.62;82.65
77727;SHT30;68312;53.502;10.030;2023-04-08T10:43:34;7.56;82.67
77727;SHT30;68312;53.502;10.030;2023-04-08T10:46:01;7.59;82.68
77727;SHT30;68312;53.502;10.030;2023-04-08T10:48:27;7.56;82.13
77727;SHT30;68312;53.502;10.030;2023-04-08T10:51:00;7.56;82.64
77727;SHT30;68312;53.502;10.030;2023-04-08T10:53:30;7.46;82.54
77727;SHT30;68312;53.502;10.030;2023-04-08T10:56:10;7.43;82.78
77727;SHT30;68312;53.502;10.030;2023-04-08T10:58:53;7.40;83.14
77727;SHT30;68312;53.502;10.030;2023-04-08T11:01:23;7.42;83.10
77727;SHT30;68312;53.502;10.030;2023-04-08T11:03:50;7.45;83.11
77727;SHT30;68312;53.502;10.030;2023-04-08T11:06:16;7.50;83.44
77727;SHT30;68312;53.502;10.030;2023-04-08T11:08:42;7.46;82.90
77727;SHT30;68312;53.502;10.030;2023-04-08T11:11:09;7.40;83.18
77727;SHT30;68312;53.502;10.030;2023-04-08T11:13:42;7.45;83.59
77727;SHT30;68312;53.502;10.030;2023-04-08T11:16:09;7.52;83.06
77727;SHT30;68312;53.502;10.030;2023-04-08T11:18:37;7.56;83.24
77727;SHT30;68312;53.502;10.030;2023-04-08T11:21:14;7.63;82.69
77727;SHT30;68312;53.502;10.030;2023-04-08T11:23:41;7.64;82.25
77727;SHT30;68312;53.502;10.030;2023-04-08T11:26:07;7.62;82.87
77727;SHT30;68312;53.502;10.030;2023-04-08T11:28:34;7.70;82.37
77727;SHT30;68312;53.502;10.030;2023-04-08T11:31:01;7.69;82.40
77727;SHT30;68312;53.502;10.030;2023-04-08T11:33:31;7.74;82.40
77727;SHT30;68312;53.502;10.030;2023-04-08T11:36:00;7.78;82.09
77727;SHT30;68312;53.502;10.030;2023-04-08T11:38:28;7.90;81.89
77727;SHT30;68312;53.502;10.030;2023-04-08T11:40:58;7.95;81.38
77727;SHT30;68312;53.502;10.030;2023-04-08T11:43:24;7.87;81.40
77727;SHT30;68312;53.502;10.030;2023-04-08T11:45:52;7.87;81.61
77727;SHT30;68312;53.502;10.030;2023-04-08T11:48:18;7.91;81.64
77727;SHT30;68312;53.502;10.030;2023-04-08T11:50:44;7.94;81.20
77727;SHT30;68312;53.502;10.030;2023-04-08T11:53:20;7.95;81.51
77727;SHT30;68312;53.502;10.030;2023-04-08T11:55:49;8.01;81.36
77727;SHT30;68312;53.502;10.030;2023-04-08T11:58:15;7.98;80.96
77727;SHT30;68312;53.502;10.030;2023-04-08T12:00:41;7.85;81.12
77727;SHT30;68312;53.502;10.030;2023-04-08T12:03:08;7.87;81.16
77727;SHT30;68312;53.502;10.030;2023-04-08T12:05:36;7.81;81.79
77727;SHT30;68312;53.502;10.030;2023-04-08T12:08:01;7.94;81.56
77727;SHT30;68312;53.502;10.030;2023-04-08T12:10:27;7.95;81.42
77727;SHT30;68312;53.502;10.030;2023-04-08T12:12:53;7.95;80.84
77727;SHT30;68312;53.502;10.030;2023-04-08T12:15:19;8.05;81.22
77727;SHT30;68312;53.502;10.030;2023-04-08T12:17:44;8.14;80.79
77727;SHT30;68312;53.502;10.030;2023-04-08T12:20:11;8.20;79.94
77727;SHT30;68312;53.502;10.030;2023-04-08T12:22:38;8.22;80.61
77727;SHT30;68312;53.502;10.030;2023-04-08T12:25:04;8.28;80.79
77727;SHT30;68312;53.502;10.030;2023-04-08T12:27:30;8.35;80.19
77727;SHT30;68312;53.502;10.030;2023-04-08T12:30:01;8.41;79.26
77727;SHT30;68312;53.502;10.030;2023-04-08T12:32:27;8.41;79.36
77727;SHT30;68312;53.502;10.030;2023-04-08T12:34:53;8.25;79.54
77727;SHT30;68312;53.502;10.030;2023-04-08T12:37:19;8.16;80.60
77727;SHT30;68312;53.502;10.030;2023-04-08T12:39:47;8.16;79.78
77727;SHT30;68312;53.502;10.030;2023-04-08T12:42:13;8.12;80.45
77727;SHT30;68312;53.502;10.030;2023-04-08T12:44:39;8.12;80.51
77727;SHT30;68312;53.502;10.030;2023-04-08T12:47:04;8.12;80.94
77727;SHT30;68312;53.502;10.030;2023-04-08T12:49:30;8.22;80.27
77727;SHT30;68312;53.502;10.030;2023-04-08T12:51:56;8.26;80.01
77727;SHT30;68312;53.502;10.030;2023-04-08T12:54:21;8.22;80.28
77727;SHT30;68312;53.502;10.030;2023-04-08T12:56:47;8.29;80.08
77727;SHT30;68312;53.502;10.030;2023-04-08T12:59:13;8.18;80.08
77727;SHT30;68312;53.502;10.030;2023-04-08T13:01:39;8.21;80.19
77727;SHT30;68312;53.502;10.030;2023-04-08T13:04:06;8.20;80.39
77727;SHT30;68312;53.502;10.030;2023-04-08T13:06:31;8.35;80.40
77727;SHT30;68312;53.502;10.030;2023-04-08T13:08:57;8.42;79.38
77727;SHT30;68312;53.502;10.030;2023-04-08T13:11:23;8.36;79.93
77727;SHT30;68312;53.502;10.030;2023-04-08T13:13:48;8.49;79.55
77727;SHT30;68312;53.502;10.030;2023-04-08T13:16:15;8.59;79.31
77727;SHT30;68312;53.502;10.030;2023-04-08T13:18:41;8.55;79.30
77727;SHT30;68312;53.502;10.030;2023-04-08T13:21:07;8.59;79.43
77727;SHT30;68312;53.502;10.030;2023-04-08T13:23:34;8.52;79.15
77727;SHT30;68312;53.502;10.030;2023-04-08T13:25:59;8.56;79.23
77727;SHT30;68312;53.502;10.030;2023-04-08T13:28:25;8.50;79.14
77727;SHT30;68312;53.502;10.030;2023-04-08T13:30:51;8.49;79.75
77727;SHT30;68312;53.502;10.030;2023-04-08T13:33:18;8.48;79.00
77727;SHT30;68312;53.502;10.030;2023-04-08T13:35:44;8.38;79.42
77727;SHT30;68312;53.502;10.030;2023-04-08T13:38:09;8.46;79.22
77727;SHT30;68312;53.502;10.030;2023-04-08T13:40:35;8.45;79.26
77727;SHT30;68312;53.502;10.030;2023-04-08T13:43:01;8.46;79.42
77727;SHT30;68312;53.502;10.030;2023-04-08T13:45:26;8.45;79.51
77727;SHT30;68312;53.502;10.030;2023-04-08T13:47:52;8.50;79.14
77727;SHT30;68312;53.502;10.030;2023-04-08T13:50:17;8.50;79.56
77727;SHT30;68312;53.502;10.030;2023-04-08T13:52:43;8.46;79.38
77727;SHT30;68312;53.502;10.030;2023-04-08T13:55:08;8.39;79.78
77727;SHT30;68312;53.502;10.030;2023-04-08T13:57:34;8.45;80.19
77727;SHT30;68312;53.502;10.030;2023-04-08T13:59:59;8.39;79.79
77727;SHT30;68312;53.502;10.030;2023-04-08T14:02:25;8.31;79.89
77727;SHT30;68312;53.502;10.030;2023-04-08T14:04:50;8.32;80.27
77727;SHT30;68312;53.502;10.030;2023-04-08T14:07:16;8.35;80.10
77727;SHT30;68312;53.502;10.030;2023-04-08T14:09:43;8.36;80.13
77727;SHT30;68312;53.502;10.030;2023-04-08T14:12:09;8.43;80.14
77727;SHT30;68312;53.502;10.030;2023-04-08T14:14:34;8.45;80.19
77727;SHT30;68312;53.502;10.030;2023-04-08T14:17:00;8.39;79.73
77727;SHT30;68312;53.502;10.030;2023-04-08T14:19:26;8.31;80.10
77727;SHT30;68312;53.502;10.030;2023-04-08T14:21:51;8.32;80.25
77727;SHT30;68312;53.502;10.030;2023-04-08T14:24:17;8.45;80.03
77727;SHT30;68312;53.502;10.030;2023-04-08T14:26:43;8.45;79.51
77727;SHT30;68312;53.502;10.030;2023-04-08T14:29:08;8.49;79.51
77727;SHT30;68312;53.502;10.030;2023-04-08T14:31:34;8.43;79.90
77727;SHT30;68312;53.502;10.030;2023-04-08T14:34:01;8.28;80.09
77727;SHT30;68312;53.502;10.030;2023-04-08T14:36:27;8.21;80.63
77727;SHT30;68312;53.502;10.030;2023-04-08T14:38:54;8.18;81.01
77727;SHT30;68312;53.502;10.030;2023-04-08T14:41:20;8.18;80.44
77727;SHT30;68312;53.502;10.030;2023-04-08T14:43:47;8.16;80.95
77727;SHT30;68312;53.502;10.030;2023-04-08T14:46:13;8.14;80.52
77727;SHT30;68312;53.502;10.030;2023-04-08T14:48:38;8.21;80.88
77727;SHT30;68312;53.502;10.030;2023-04-08T14:51:04;8.25;81.02
77727;SHT30;68312;53.502;10.030;2023-04-08T14:53:31;8.31;80.61
77727;SHT30;68312;53.502;10.030;2023-04-08T14:55:58;8.28;80.98
77727;SHT30;68312;53.502;10.030;2023-04-08T14:58:24;8.31;80.42
77727;SHT30;68312;53.502;10.030;2023-04-08T15:00:50;8.28;80.11
77727;SHT30;68312;53.502;10.030;2023-04-08T15:03:16;8.26;80.79
77727;SHT30;68312;53.502;10.030;2023-04-08T15:05:43;8.20;80.52
77727;SHT30;68312;53.502;10.030;2023-04-08T15:08:10;8.16;80.53
77727;SHT30;68312;53.502;10.030;2023-04-08T15:10:36;8.09;81.17
77727;SHT30;68312;53.502;10.030;2023-04-08T15:13:02;8.09;80.89
77727;SHT30;68312;53.502;10.030;2023-04-08T15:15:28;8.12;80.96
77727;SHT30;68312;53.502;10.030;2023-04-08T15:17:53;8.08;80.78
77727;SHT30;68312;53.502;10.030;2023-04-08T15:20:19;8.09;81.10
77727;SHT30;68312;53.502;10.030;2023-04-08T15:22:45;7.99;81.14
77727;SHT30;68312;53.502;10.030;2023-04-08T15:25:11;8.08;81.10
77727;SHT30;68312;53.502;10.030;2023-04-08T15:27:37;8.06;81.07
77727;SHT30;68312;53.502;10.030;2023-04-08T15:30:05;8.02;80.98
77727;SHT30;68312;53.502;10.030;2023-04-08T15:32:30;7.90;81.54
77727;SHT30;68312;53.502;10.030;2023-04-08T15:34:57;7.80;81.89
77727;SHT30;68312;53.502;10.030;2023-04-08T15:37:23;7.77;82.50
77727;SHT30;68312;53.502;10.030;2023-04-08T15:39:49;7.67;82.71
77727;SHT30;68312;53.502;10.030;2023-04-08T15:42:18;7.64;82.84
77727;SHT30;68312;53.502;10.030;2023-04-08T15:44:43;7.64;82.78